Time;durP1;ratioP1;P1;durP2;ratioP2;P2;SDS_P1;SDS_P2;PMS_P1;PMS_P2;Temp;Humidity;BMP_temperature;BMP_pressure;BME280_temperature;BME280_humidity;BME280_pressure;Samples;Min_cycle;Max_cycle;Signal;HPM_P1;HPM_P2
2021/09/22 00:04:22;;;;;;;;;;;;;;;15.37;78.74;102034.81;15618301;28;20451;-55
2021/09/22 00:11:58;;;;;;;1999.90;999.90;;;;;;;15.33;78.91;102043.09;15615492;28;19975;-53
2021/09/22 00:19:31;;;;;;;1999.90;999.90;;;;;;;15.39;78.36;102049.38;15616516;28;20430;-55
2021/09/22 00:27:05;;;;;;;1999.90;999.90;;;;;;;15.25;79.75;102046.75;15620122;28;20077;-50
2021/09/22 00:34:38;;;;;;;1999.90;999.90;;;;;;;15.23;79.46;102049.91;15597526;28;20056;-54
2021/09/22 00:42:11;;;;;;;1999.90;999.90;;;;;;;15.44;78.21;102046.38;15613624;28;20224;-55
2021/09/22 00:49:44;;;;;;;1999.90;999.90;;;;;;;15.59;77.92;102046.66;15595532;28;20038;-56
2021/09/22 00:57:19;;;;;;;1999.90;999.90;;;;;;;15.33;78.12;102056.34;15596516;28;20049;-52
2021/09/22 01:04:51;;;;;;;1999.90;999.90;;;;;;;15.25;77.96;102049.56;15613753;28;20391;-55
2021/09/22 01:12:25;;;;;;;1999.90;999.90;;;;;;;15.20;78.16;102047.72;15612299;28;20508;-53
2021/09/22 01:19:59;;;;;;;;;;;;;;;15.10;78.80;102047.25;15612938;28;20132;-51
2021/09/22 01:27:32;;;;;;;1999.90;999.90;;;;;;;15.22;78.86;102056.69;15599631;28;20016;-52
2021/09/22 01:35:08;;;;;;;1999.90;999.90;;;;;;;15.13;78.99;102047.44;15593988;28;20494;-53
2021/09/22 01:43:02;;;;;;;1999.90;999.90;;;;;;;15.04;79.65;102048.59;15624655;22;20048;-60
2021/09/22 01:50:43;;;;;;;1999.90;999.90;;;;;;;15.01;79.40;102050.09;15601861;28;20077;-57
2021/09/22 01:58:17;;;;;;;1999.90;999.90;;;;;;;14.86;79.79;102048.56;15623296;28;20132;-57
2021/09/22 02:06:32;;;;;;;;;;;;;;;;;;;;;
2021/09/22 02:14:08;;;;;;;1999.90;999.90;;;;;;;15.05;79.45;102062.31;15616110;28;20034;-57
2021/09/22 02:22:07;;;;;;;1999.90;999.90;;;;;;;15.02;78.98;102049.75;15632340;28;20064;-58
2021/09/22 02:30:16;;;;;;;1999.90;999.90;;;;;;;15.27;78.46;102058.47;15614074;28;20054;-57
2021/09/22 02:37:52;;;;;;;;;;;;;;;15.17;78.96;102056.84;15614457;28;20128;-59
2021/09/22 02:45:44;;;;;;;1999.90;999.90;;;;;;;15.21;78.38;102057.81;15614037;28;20329;-57
2021/09/22 02:53:16;;;;;;;1999.90;999.90;;;;;;;14.90;79.71;102060.81;15614036;28;20045;-58
2021/09/22 03:00:50;;;;;;;1999.90;999.90;;;;;;;14.91;78.71;102051.22;15613424;28;20038;-59
2021/09/22 03:08:23;;;;;;;1999.90;999.90;;;;;;;15.03;77.65;102056.19;15612950;28;20145;-59
2021/09/22 03:15:57;;;;;;;1999.90;999.90;;;;;;;14.76;79.01;102062.94;15622451;28;20427;-57
2021/09/22 03:23:30;;;;;;;1999.90;999.90;;;;;;;14.67;78.28;102065.75;15621846;28;20053;-57
2021/09/22 03:31:08;;;;;;;1999.90;999.90;;;;;;;14.71;78.07;102068.75;15623762;28;20395;-58
2021/09/22 03:38:42;;;;;;;1999.90;999.90;;;;;;;14.47;78.83;102080.41;15607042;28;20049;-61
2021/09/22 03:46:18;;;;;;;1999.90;999.90;;;;;;;14.62;78.60;102081.94;15622922;28;20410;-59
2021/09/22 03:54:12;;;;;;;1999.90;999.90;;;;;;;14.55;79.02;102078.78;15622634;28;20060;-57
2021/09/22 04:01:46;;;;;;;1999.90;999.90;;;;;;;14.56;78.15;102091.66;15605467;28;20371;-59
2021/09/22 04:09:19;;;;;;;1999.90;999.90;;;;;;;14.36;79.23;102091.06;15621666;28;20038;-58
2021/09/22 04:16:54;;;;;;;;;;;;;;;14.41;78.92;102105.00;15605000;28;20080;-57
2021/09/22 04:24:26;;;;;;;;;;;;;;;14.46;78.23;102120.06;15629864;28;19928;-58
2021/09/22 04:32:01;;;;;;;1999.90;999.90;;;;;;;14.24;79.65;102102.09;15620803;28;20391;-59
2021/09/22 04:39:53;;;;;;;1999.90;999.90;;;;;;;14.09;79.95;102102.56;15619589;28;20375;-59
2021/09/22 04:48:01;;;;;;;1999.90;999.90;;;;;;;14.37;78.67;102125.59;15597838;28;20053;-59
2021/09/22 04:55:52;;;;;;;1999.90;999.90;;;;;;;14.28;78.63;102128.41;15618800;28;20123;-57
2021/09/22 05:03:46;;;;;;;1999.90;999.90;;;;;;;14.29;79.20;102138.47;15619355;28;20529;-59
2021/09/22 05:11:43;;;;;;;1999.90;999.90;;;;;;;14.39;78.70;102141.00;15578373;28;20065;-56
2021/09/22 05:19:35;;;;;;;1999.90;999.90;;;;;;;14.28;79.43;102148.06;15592588;28;20036;-58
2021/09/22 05:27:27;;;;;;;1999.90;999.90;;;;;;;14.24;79.96;102149.84;15617471;28;20046;-60
2021/09/22 05:35:19;;;;;;;1999.90;999.90;;;;;;;14.64;78.55;102153.50;15617159;28;20398;-59
2021/09/22 05:43:30;;;;;;;1999.90;999.90;;;;;;;14.69;78.09;102158.97;15576856;28;20053;-58
2021/09/22 05:51:23;;;;;;;1999.90;999.90;;;;;;;14.50;79.57;102175.28;15641718;28;20052;-59
2021/09/22 05:59:18;;;;;;;1999.90;999.90;;;;;;;14.68;78.68;102173.31;15679904;28;20045;-58
2021/09/22 06:07:10;;;;;;;1999.90;999.90;;;;;;;14.87;78.08;102198.34;15679445;28;20457;-56
2021/09/22 06:15:03;;;;;;;1999.90;999.90;;;;;;;14.87;78.45;102198.34;15678415;28;20037;-58
2021/09/22 06:22:37;;;;;;;1999.90;999.90;;;;;;;14.86;78.36;102194.72;15655899;28;20091;-59
2021/09/22 06:30:14;;;;;;;1999.90;999.90;;;;;;;15.19;77.16;102194.28;15615804;28;20044;-59
2021/09/22 06:37:59;;;;;;;1999.90;999.90;;;;;;;15.15;78.00;102191.31;15614515;28;20506;-59
2021/09/22 06:45:38;;;;;;;1999.90;999.90;;;;;;;15.37;76.49;102207.22;15649368;28;20074;-57
2021/09/22 06:53:16;;;;;;;1999.90;999.90;;;;;;;15.53;75.65;102216.00;15642526;28;20046;-56
2021/09/22 07:00:48;;;;;;;1999.90;999.90;;;;;;;15.66;76.24;102215.03;15628830;28;20060;-58
2021/09/22 07:08:23;;;;;;;1999.90;999.90;;;;;;;15.68;75.80;102209.88;15628535;28;20049;-60
2021/09/22 07:15:58;;;;;;;1999.90;999.90;;;;;;;15.92;74.88;102208.53;15657424;28;20048;-59
2021/09/22 07:23:34;;;;;;;1999.90;999.90;;;;;;;15.96;75.41;102229.25;15688098;28;20203;-61
2021/09/22 07:31:06;;;;;;;1999.90;999.90;;;;;;;16.26;73.91;102238.66;15687261;28;20115;-59
2021/09/22 07:38:42;;;;;;;1999.90;999.90;;;;;;;16.25;73.41;102246.22;15686803;28;20103;-61
2021/09/22 07:46:26;;;;;;;1999.90;999.90;;;;;;;16.31;73.77;102246.91;15651429;22;20077;-53
2021/09/22 07:54:02;;;;;;;1999.90;999.90;;;;;;;16.56;72.71;102256.44;15617072;28;20548;-56
2021/09/22 08:01:35;;;;;;;1999.90;999.90;;;;;;;16.21;73.63;102247.25;15618078;28;20076;-58
2021/09/22 08:09:11;;;;;;;1999.90;999.90;;;;;;;16.50;72.58;102260.59;15600062;28;20107;-54
2021/09/22 08:16:45;;;;;;;1999.90;999.90;;;;;;;16.55;73.19;102272.50;15600007;28;20435;-54
2021/09/22 08:24:19;;;;;;;1999.90;999.90;;;;;;;16.76;72.89;102283.91;15636250;28;20378;-53
2021/09/22 08:31:54;;;;;;;1999.90;999.90;;;;;;;16.63;72.85;102291.38;15679039;28;20102;-55
2021/09/22 08:39:32;;;;;;;1999.90;999.90;;;;;;;16.94;71.48;102277.03;15677690;28;20045;-51
2021/09/22 08:47:04;;;;;;;1999.90;999.90;;;;;;;16.98;71.25;102283.63;15677748;28;20506;-56
2021/09/22 08:54:40;;;;;;;1999.90;999.90;;;;;;;17.23;70.95;102261.28;15677463;28;20178;-55
2021/09/22 09:02:15;;;;;;;1999.90;999.90;;;;;;;17.23;72.71;102258.47;15677348;28;20120;-55
2021/09/22 09:10:10;;;;;;;1999.90;999.90;;;;;;;17.61;69.88;102269.66;15675277;28;20029;-51
2021/09/22 09:17:47;;;;;;;1999.90;999.90;;;;;;;17.86;68.74;102262.19;15658736;28;20041;-51
2021/09/22 09:25:37;;;;;;;1999.90;999.90;;;;;;;18.42;66.95;102260.63;15613661;28;20048;-53
2021/09/22 09:33:31;;;;;;;1999.90;999.90;;;;;;;18.22;67.07;102255.84;15596743;28;20120;-51
2021/09/22 09:41:22;;;;;;;1999.90;999.90;;;;;;;18.23;67.39;102254.66;15790473;28;20719;-52
2021/09/22 09:49:24;;;;;;;;;;;;;;;;;;;;;
2021/09/22 09:57:11;;;;;;;1999.90;999.90;;;;;;;18.72;64.87;102254.81;15789707;28;20048;-55
2021/09/22 10:04:44;;;;;;;1999.90;999.90;;;;;;;18.70;65.22;102254.34;15789530;28;20464;-55
2021/09/22 10:12:27;;;;;;;1999.90;999.90;;;;;;;18.74;65.05;102258.94;15786718;28;20052;-57
2021/09/22 10:20:13;;;;;;;1999.90;999.90;;;;;;;18.82;63.80;102264.84;15788161;28;20052;-53
2021/09/22 10:28:08;;;;;;;1999.90;999.90;;;;;;;18.89;63.36;102259.44;15787091;28;20052;-53
2021/09/22 10:35:40;;;;;;;1999.90;999.90;;;;;;;18.86;64.63;102244.00;15785258;28;20046;-53
2021/09/22 10:43:26;;;;;;;1999.90;999.90;;;;;;;19.12;63.32;102239.97;15785546;28;20524;-56
2021/09/22 10:51:04;;;;;;;1999.90;999.90;;;;;;;18.68;63.55;102234.91;15751751;28;20109;-51
2021/09/22 10:58:42;;;;;;;1999.90;999.90;;;;;;;19.80;61.66;102240.09;15744147;28;20044;-54
2021/09/22 11:06:48;;;;;;;1999.90;999.90;;;;;;;20.02;58.29;102235.88;15725609;28;20110;-57
2021/09/22 11:14:32;;;;;;;1999.90;999.90;;;;;;;20.38;58.49;102223.50;15742740;28;20036;-53
2021/09/22 11:22:20;;;;;;;1999.90;999.90;;;;;;;20.21;59.43;102230.34;15724084;28;20110;-56
2021/09/22 11:29:58;;;;;;;1999.90;999.90;;;;;;;20.05;59.51;102235.97;15679505;28;20124;-54
2021/09/22 11:37:39;;;;;;;1999.90;999.90;;;;;;;21.58;54.50;102216.38;15678757;28;20123;-56
2021/09/22 11:45:49;;;;;;;1999.90;999.90;;;;;;;21.95;52.50;102211.06;15678462;28;20043;-55
2021/09/22 11:53:45;;;;;;;1999.90;999.90;;;;;;;23.84;47.08;102211.34;15676336;28;20056;-56
2021/09/22 12:01:24;;;;;;;1999.90;999.90;;;;;;;24.02;46.11;102209.53;15676523;28;20098;-51
2021/09/22 12:08:56;;;;;;;1999.90;999.90;;;;;;;24.89;46.09;102212.84;15675704;28;20036;-57
2021/09/22 12:16:30;;;;;;;1999.90;999.90;;;;;;;24.73;44.60;102204.56;15697937;28;20049;-55
2021/09/22 12:24:25;;;;;;;1999.90;999.90;;;;;;;27.98;40.23;102177.34;15710683;28;20054;-55
2021/09/22 12:32:07;;;;;;;1999.90;999.90;;;;;;;28.35;38.78;102176.72;15711615;28;20151;-57
2021/09/22 12:39:51;;;;;;;1999.90;999.90;;;;;;;26.48;41.72;102178.91;15727019;28;20094;-55
2021/09/22 12:47:26;;;;;;;1999.90;999.90;;;;;;;29.16;37.54;102176.41;15717675;28;20469;-53
2021/09/22 12:54:58;;;;;;;1999.90;999.90;;;;;;;29.23;35.61;102164.84;15693676;28;20045;-53
2021/09/22 13:02:40;;;;;;;1999.90;999.90;;;;;;;25.03;43.04;102163.63;15730045;28;20044;-55
2021/09/22 13:10:48;;;;;;;1999.90;999.90;;;;;;;25.89;42.31;102154.25;15721426;28;20139;-50
2021/09/22 13:18:22;;;;;;;1999.90;999.90;;;;;;;28.53;38.21;102147.03;15674626;28;20095;-54
2021/09/22 13:25:56;;;;;;;1999.90;999.90;;;;;;;28.38;36.88;102141.44;15674010;28;20052;-52
2021/09/22 13:33:30;;;;;;;1999.90;999.90;;;;;;;22.79;46.36;102124.00;15674818;28;20049;-54
2021/09/22 13:41:14;;;;;;;1999.90;999.90;;;;;;;22.50;49.89;102114.19;15735427;28;20056;-51
2021/09/22 13:48:49;;;;;;;1999.90;999.90;;;;;;;22.60;50.00;102107.84;15541118;28;20046;-60
2021/09/22 13:56:21;;;;;;;1999.90;999.90;;;;;;;22.90;49.04;102100.22;15535261;28;20038;-58
2021/09/22 14:03:55;;;;;;;1999.90;999.90;;;;;;;22.20;49.25;102086.50;15554339;28;20120;-59
2021/09/22 14:11:27;;;;;;;1999.90;999.90;;;;;;;22.33;48.52;102082.25;15553657;28;20050;-57
2021/09/22 14:19:01;;;;;;;1999.90;999.90;;;;;;;21.69;49.81;102066.88;15553620;28;20491;-59
2021/09/22 14:27:15;;;;;;;1999.90;999.90;;;;;;;21.82;49.56;102071.16;15562244;28;20048;-58
2021/09/22 14:34:55;;;;;;;1999.90;999.90;;;;;;;21.77;50.51;102056.44;15550254;28;20050;-57
2021/09/22 14:42:27;;;;;;;1999.90;999.90;;;;;;;21.46;51.14;102054.63;15562260;28;20099;-60
2021/09/22 14:50:01;;;;;;;1999.90;999.90;;;;;;;21.07;52.55;102040.44;15563674;28;20494;-60
2021/09/22 14:57:43;;;;;;;1999.90;999.90;;;;;;;21.15;52.69;102027.19;15561224;28;20073;-59
2021/09/22 15:05:19;;;;;;;1999.90;999.90;;;;;;;21.24;52.85;102024.97;15561594;28;20141;-59
2021/09/22 15:12:52;;;;;;;1999.90;999.90;;;;;;;21.07;53.37;102022.59;15561767;28;20104;-60
2021/09/22 15:20:30;;;;;;;1999.90;999.90;;;;;;;20.95;54.08;102013.03;15576919;28;20461;-59
2021/09/22 15:28:02;;;;;;;1999.90;999.90;;;;;;;20.64;55.12;102008.31;15561132;28;20380;-59
2021/09/22 15:35:37;;;;;;;1999.90;999.90;;;;;;;20.50;55.07;101995.81;15541119;28;20073;-58
2021/09/22 15:43:09;;;;;;;1999.90;999.90;;;;;;;20.49;56.63;101988.50;15499310;28;20139;-59
2021/09/22 15:50:44;;;;;;;1999.90;999.90;;;;;;;20.39;57.21;101985.00;15500232;28;20050;-59
2021/09/22 15:58:17;;;;;;;1999.90;999.90;;;;;;;20.15;56.42;101979.59;15498971;28;20096;-58
2021/09/22 16:05:51;;;;;;;1999.90;999.90;;;;;;;19.93;57.77;101981.06;15497157;28;20042;-59
2021/09/22 16:13:23;;;;;;;1999.90;999.90;;;;;;;19.83;59.91;101968.28;15482117;28;20158;-58
2021/09/22 16:20:56;;;;;;;1999.90;999.90;;;;;;;19.66;60.82;101970.66;15496733;28;20074;-57
2021/09/22 16:28:29;;;;;;;1999.90;999.90;;;;;;;19.52;62.46;101968.25;15496001;28;20093;-60
2021/09/22 16:36:03;;;;;;;1999.90;999.90;;;;;;;19.35;61.40;101974.25;15501727;28;20050;-58
2021/09/22 16:43:35;;;;;;;1999.90;999.90;;;;;;;19.17;62.62;101968.09;15556995;28;20080;-57
2021/09/22 16:51:09;;;;;;;1999.90;999.90;;;;;;;18.91;63.76;101958.09;15555871;28;20172;-60
2021/09/22 16:58:41;;;;;;;1999.90;999.90;;;;;;;18.61;64.55;101954.75;15538352;28;20133;-55
2021/09/22 17:06:17;;;;;;;1999.90;999.90;;;;;;;18.36;65.15;101965.31;15556094;28;20507;-57
2021/09/22 17:13:49;;;;;;;1999.90;999.90;;;;;;;18.02;66.43;101957.31;15555430;28;20502;-58
2021/09/22 17:21:23;;;;;;;1999.90;999.90;;;;;;;17.86;67.20;101952.41;15555017;28;20049;-58
2021/09/22 17:28:56;;;;;;;1999.90;999.90;;;;;;;17.64;67.74;101941.53;15554759;28;20084;-59
2021/09/22 17:36:29;;;;;;;1999.90;999.90;;;;;;;17.50;68.43;101946.69;15545329;28;20077;-58
2021/09/22 17:44:02;;;;;;;1999.90;999.90;;;;;;;17.42;69.12;101959.75;15553296;28;20065;-59
2021/09/22 17:51:37;;;;;;;1999.90;999.90;;;;;;;17.59;69.98;101953.06;15554598;28;20072;-58
2021/09/22 17:59:09;;;;;;;1999.90;999.90;;;;;;;17.67;70.32;101943.66;15541047;28;20095;-59
2021/09/22 18:06:43;;;;;;;1999.90;999.90;;;;;;;17.74;70.27;101941.13;15548016;28;20415;-58
2021/09/22 18:14:16;;;;;;;1999.90;999.90;;;;;;;17.70;70.02;101942.16;15556525;28;20602;-59
2021/09/22 18:21:50;;;;;;;1999.90;999.90;;;;;;;17.81;69.14;101937.69;15559778;28;20129;-58
2021/09/22 18:29:23;;;;;;;1999.90;999.90;;;;;;;17.66;69.40;101932.72;15557919;28;20388;-57
2021/09/22 18:37:02;;;;;;;1999.90;999.90;;;;;;;17.30;69.85;101921.06;15555691;28;20045;-58
2021/09/22 18:44:34;;;;;;;1999.90;999.90;;;;;;;17.08;70.35;101918.63;15550333;28;20078;-59
2021/09/22 18:52:09;;;;;;;1999.90;999.90;;;;;;;16.94;71.16;101910.50;15536294;28;20093;-58
2021/09/22 18:59:42;;;;;;;1999.90;999.90;;;;;;;16.66;71.40;101913.03;15548664;28;20053;-60
2021/09/22 19:07:17;;;;;;;1999.90;999.90;;;;;;;16.54;71.64;101907.34;15560848;28;20403;-58
2021/09/22 19:14:50;;;;;;;1999.90;999.90;;;;;;;16.20;72.16;101907.66;15544540;28;20145;-61
2021/09/22 19:22:24;;;;;;;1999.90;999.90;;;;;;;16.02;72.69;101899.31;15558634;28;20133;-59
2021/09/22 19:29:58;;;;;;;1999.90;999.90;;;;;;;15.83;72.88;101893.31;15549489;28;20489;-60
2021/09/22 19:37:31;;;;;;;1999.90;999.90;;;;;;;15.71;72.91;101898.84;15549771;28;20487;-58
2021/09/22 19:45:05;;;;;;;1999.90;999.90;;;;;;;15.57;72.87;101888.63;15550888;28;20050;-59
2021/09/22 19:52:40;;;;;;;1999.90;999.90;;;;;;;15.44;73.31;101878.44;15553770;28;20494;-61
2021/09/22 20:00:13;;;;;;;1999.90;999.90;;;;;;;15.30;73.37;101883.44;15553991;28;20042;-60
2021/09/22 20:07:47;;;;;;;;;;;;;;;15.26;73.09;101879.69;15549848;28;20065;-60
2021/09/22 20:15:19;;;;;;;1999.90;999.90;;;;;;;15.07;73.23;101879.25;15559001;28;20099;-59
2021/09/22 20:22:53;;;;;;;1999.90;999.90;;;;;;;15.01;73.50;101871.00;15528509;28;20130;-58
2021/09/22 20:30:26;;;;;;;1999.90;999.90;;;;;;;15.06;72.96;101877.59;15534074;28;20054;-59
2021/09/22 20:38:00;;;;;;;1999.90;999.90;;;;;;;14.90;73.79;101871.66;15557598;28;20052;-61
2021/09/22 20:45:32;;;;;;;1999.90;999.90;;;;;;;14.77;73.71;101869.91;15554840;28;20057;-60
2021/09/22 20:53:05;;;;;;;1999.90;999.90;;;;;;;14.67;73.37;101869.06;15549423;28;20131;-61
2021/09/22 21:00:39;;;;;;;1999.90;999.90;;;;;;;14.64;73.44;101860.50;15553244;28;20692;-58
2021/09/22 21:08:13;;;;;;;1999.90;999.90;;;;;;;14.60;73.83;101854.72;15550165;28;20041;-60
2021/09/22 21:15:45;;;;;;;1999.90;999.90;;;;;;;14.44;74.05;101860.03;15548032;28;20467;-61
2021/09/22 21:23:19;;;;;;;1999.90;999.90;;;;;;;14.36;73.98;101857.19;15550104;28;20048;-61
2021/09/22 21:30:55;;;;;;;1999.90;999.90;;;;;;;14.15;74.25;101848.59;15553418;28;20072;-59
2021/09/22 21:38:28;;;;;;;1999.90;999.90;;;;;;;14.05;74.47;101826.47;15530625;28;20040;-60
2021/09/22 21:46:01;;;;;;;1999.90;999.90;;;;;;;13.94;74.58;101817.56;15552121;28;20049;-60
2021/09/22 21:53:35;;;;;;;1999.90;999.90;;;;;;;13.93;74.15;101795.44;15554136;28;20062;-57
2021/09/22 22:01:07;;;;;;;1999.90;999.90;;;;;;;13.79;74.81;101790.00;15551985;28;20132;-59
2021/09/22 22:08:40;;;;;;;1999.90;999.90;;;;;;;13.89;73.93;101794.47;15536235;28;20449;-60
2021/09/22 22:16:13;;;;;;;1999.90;999.90;;;;;;;13.71;74.59;101791.63;15554344;28;20193;-57
2021/09/22 22:23:46;;;;;;;1999.90;999.90;;;;;;;13.74;74.55;101776.94;15555347;28;20059;-58
2021/09/22 22:31:19;;;;;;;;;;;;;;;13.78;74.36;101777.97;15554900;28;20113;-60
2021/09/22 22:38:52;;;;;;;1999.90;999.90;;;;;;;13.65;74.72;101769.69;15552409;28;19925;-61
2021/09/22 22:46:24;;;;;;;1999.90;999.90;;;;;;;13.55;74.99;101751.22;15557726;28;20081;-61
2021/09/22 22:53:58;;;;;;;1999.90;999.90;;;;;;;13.61;75.21;101732.22;15563093;28;20042;-60
2021/09/22 23:01:30;;;;;;;;;;;;;;;13.52;74.31;101737.84;15563450;28;20496;-61
2021/09/22 23:09:04;;;;;;;1999.90;999.90;;;;;;;13.33;74.59;101740.09;15556287;28;19925;-61
2021/09/22 23:16:38;;;;;;;1999.90;999.90;;;;;;;13.34;75.19;101727.75;15538165;28;20034;-61
2021/09/22 23:24:11;;;;;;;;;;;;;;;13.34;75.47;101727.75;15530743;28;20050;-61
2021/09/22 23:31:44;;;;;;;;;;;;;;;13.31;75.11;101739.63;15560083;28;19992;-61
2021/09/22 23:39:17;;;;;;;1999.90;999.90;;;;;;;13.14;75.41;101737.59;15559292;28;20405;-60
2021/09/22 23:46:49;;;;;;;;;;;;;;;13.08;75.36;101745.31;15560543;28;20046;-59
2021/09/22 23:54:23;;;;;;;1999.90;999.90;;;;;;;12.84;75.65;101742.09;15560289;28;20016;-59
